This is the latest recevied weather packets stored in our database for station/object EA5LU-10. If no packets are shown the sender has not sent any weather packets the latest 10 day(s).
| Time | Temp. | Humidity | Pressure | Rain* | Wind** | Luminosity | Snow |
|---|---|---|---|---|---|---|---|
| 1777500177 | 20° C | 73% | 1004.9 hPa | - | - | - | - |
| 1777499276 | 20° C | 72% | 1004.7 hPa | - | - | - | - |
| 1777498375 | 20° C | 72% | 1004.6 hPa | - | - | - | - |
| 1777497474 | 20° C | 73% | 1004.5 hPa | - | - | - | - |
| 1777496573 | 20° C | 71% | 1004.5 hPa | - | - | - | - |
| 1777495672 | 20.56° C | 71% | 1004.3 hPa | - | - | - | - |
| 1777494772 | 20.56° C | 70% | 1004.2 hPa | - | - | - | - |
| 1777493871 | 20.56° C | 70% | 1004 hPa | - | - | - | - |
| 1777492970 | 20.56° C | 71% | 1003.7 hPa | - | - | - | - |
| 1777492069 | 21.11° C | 70% | 1003.6 hPa | - | - | - | - |
| 1777491168 | 21.67° C | 68% | 1003.4 hPa | - | - | - | - |
| 1777490268 | 21.67° C | 67% | 1003.2 hPa | - | - | - | - |
| 1777489367 | 21.67° C | 67% | 1002.9 hPa | - | - | - | - |
| 1777488466 | 21.67° C | 65% | 1002.6 hPa | - | - | - | - |
| 1777487565 | 22.22° C | 64% | 1002.5 hPa | - | - | - | - |
| 1777486664 | 22.78° C | 62% | 1002.5 hPa | - | - | - | - |
| 1777485764 | 22.78° C | 61% | 1002.5 hPa | - | - | - | - |
| 1777484863 | 23.33° C | 59% | 1002.5 hPa | - | - | - | - |
| 1777483962 | 26.11° C | 52% | 1002.4 hPa | - | - | - | - |
| 1777483061 | 27.78° C | 48% | 1002.3 hPa | - | - | - | - |
| 1777482160 | 28.33° C | 47% | 1002.2 hPa | - | - | - | - |
| 1777481259 | 24.44° C | 58% | 1002.2 hPa | - | - | - | - |
| 1777480359 | 23.89° C | 59% | 1002.2 hPa | - | - | - | - |
| 1777479458 | 24.44° C | 57% | 1002.2 hPa | - | - | - | - |
| 1777478557 | 24.44° C | 57% | 1002 hPa | - | - | - | - |
* Rain since midnight (hover to see other rain measurements)
** Current wind speed in m/s (hover to see current wind gust speed)